Ana Sayfa
METAR-TAF:

METAR-TAF

Havaalanları :

Idaho Falls, Idaho, Amerika Birleşik Devletleri

Enlem: 43-31-15N, Boylam: 112-03-58W, yükseklik: 1445 m

Güncel hava durumu gözlemi

Rapor saat 12:53 UTC de 1 saat ve 23 dakika önce yapıldı.
Rüzgar kuzeydan 6 kt
Sıcaklık -6°C
Nem 79%
Basınç 1024 hPa
Görüş mesafesi: 16.1 km
Açık gökyüzü

METAR: KIDA 141253Z AUTO 36006KT 10SM CLR M06/M09 A3024 RMK AO2 SLP265 T10611089

Saat: 07:16 (14:16 UTC)

Tahmin

Rapor saat 11:20 UTC de 2 saat ve 56 dakika önce yapıldı.
Ayın 14'si saat 12 UTC'den ayın 15'si saat 12 UTC'ye kadar geçerli Tahmin
Rüzgar kuzeydan 5 kt
Görüş mesafesi: 10 km
20000 ft yükseklikte az bulutlu
Ayın 14'si saat 1900 UTC'den
Rüzgar kuzeydan 6 kt
Görüş mesafesi: 10 km
18000 ft yükseklikte parçalı çok bulutlu
Ayın 15'si saat 0400 UTC'den
Rüzgar kuzeydan 5 kt
Görüş mesafesi: 10 km
14000 ft yükseklikte çok bulutlu

TAF: KIDA 141120Z 1412/1512 36005KT P6SM FEW200 FM141900 01006KT P6SM BKN180 FM150400 01005KT P6SM OVC140

4.000'den fazla havaalanı için hava durumu gözlemleri ve tahminleri (METAR ve TAF raporları).

Kullanılabilir istasyonlar harita üzerinde sarı ve kırmızı noktalarla gösterilir.

İstasyonun adını görmek için fareyi noktanın üzerinde gezdirin.

Sonrasında hava gözlem ve tahminlerini görmek için tıklayın.

Haritayı değiştirmek için: yaklaştırmak için siyah artı işaretli yeşil düğmeye ve uzaklaştırmak için de eksi işaretli düğmeye hızla tıklayın; bitişik haritalar için yeşil okları kullanın.


METAR-TAF: